Terminal Aerodrome Forecast
Issued by NWS Paducah, KY

Home | Current Version | Previous Version | Text Only | Print | Product List | Glossary On
Versions: 1 2 3 4 5 6 7 8 9 10 11 12 13 14 15 16
000
FTUS43 KPAH 161400 AAA
TAFEVV
TAF AMD
KEVV 161400Z 1614/1712 36008KT P6SM OVC011
      TEMPO 1614/1615 6SM BR
     FM161500 36008KT P6SM OVC015
     FM161800 01005KT P6SM BKN025
     FM170100 01002KT P6SM SKC
     FM170900 00000KT 2SM BR FEW010=

USA.gov is the U.S. government's official web portal to all federal, state and local government web resources and services.